createdAt,value
2023-03-14T00:26:30.869Z,100.00
2023-03-14T00:29:17.582Z,100.00
2023-03-14T00:32:07.833Z,100.00
2023-03-14T00:34:54.734Z,100.00
2023-03-14T00:37:46.624Z,100.00
2023-03-14T00:40:53.967Z,100.00
2023-03-14T00:44:20.966Z,100.00
2023-03-14T00:47:26.715Z,100.00
2023-03-14T00:50:33.657Z,100.00
2023-03-14T00:53:20.220Z,100.00
2023-03-14T00:56:09.507Z,100.00
2023-03-14T00:59:16.919Z,100.00
2023-03-14T01:02:21.979Z,100.00
2023-03-14T01:05:11.421Z,100.00
2023-03-14T01:07:58.287Z,100.00
2023-03-14T01:11:08.831Z,100.00
2023-03-14T01:14:15.672Z,100.00
2023-03-14T01:17:21.161Z,100.00
2023-03-14T01:23:53.856Z,100.00
2023-03-14T01:33:27.138Z,100.00
2023-03-14T01:36:14.234Z,100.00
2023-03-14T01:39:05.661Z,100.00
2023-03-14T01:41:52.008Z,100.00
2023-03-14T01:45:02.886Z,100.00
2023-03-14T01:47:50.329Z,100.00
2023-03-14T01:50:39.911Z,100.00
2023-03-14T01:57:19.487Z,100.00
2023-03-14T02:00:15.263Z,100.00
2023-03-14T02:03:14.030Z,100.00
2023-03-14T02:06:06.477Z,100.00
2023-03-14T02:08:56.950Z,100.00
2023-03-14T02:11:46.501Z,100.00
2023-03-14T02:15:05.392Z,100.00
2023-03-14T02:18:25.477Z,100.00
2023-03-14T02:22:03.272Z,100.00
2023-03-14T02:25:34.734Z,100.00
2023-03-14T02:28:23.658Z,100.00
2023-03-14T02:31:14.802Z,100.00
2023-03-14T02:34:38.780Z,100.00
2023-03-14T02:37:49.676Z,100.00
2023-03-14T02:40:58.349Z,100.00
2023-03-14T02:43:46.189Z,100.00
2023-03-14T02:46:50.943Z,100.00
2023-03-14T02:49:39.479Z,100.00
2023-03-14T02:52:28.577Z,100.00
2023-03-14T02:55:22.409Z,100.00
2023-03-14T02:58:10.054Z,100.00
2023-03-14T03:00:57.331Z,100.00
2023-03-14T03:03:43.870Z,100.00
2023-03-14T03:06:55.170Z,100.00
2023-03-14T03:13:06.491Z,100.00
2023-03-14T03:15:52.748Z,100.00
2023-03-14T03:18:39.268Z,100.00
2023-03-14T03:21:26.307Z,100.00
2023-03-14T03:24:13.173Z,100.00
2023-03-14T03:27:18.680Z,100.00
2023-03-14T03:30:24.692Z,100.00
2023-03-14T03:33:11.483Z,100.00
2023-03-14T03:36:03.367Z,100.00
2023-03-14T03:38:54.626Z,100.00
2023-03-14T03:41:41.620Z,100.00
2023-03-14T03:44:29.207Z,100.00
2023-03-14T03:47:16.181Z,100.00
2023-03-14T03:50:03.669Z,100.00
2023-03-14T03:52:52.647Z,100.00
2023-03-14T03:55:43.509Z,100.00
2023-03-14T03:59:08.193Z,100.00
2023-03-14T04:02:13.853Z,100.00
2023-03-14T04:05:19.819Z,100.00
2023-03-14T04:08:16.308Z,100.00
2023-03-14T04:11:04.113Z,100.00
2023-03-14T04:14:07.786Z,100.00
2023-03-14T04:16:54.673Z,100.00
2023-03-14T04:19:41.905Z,100.00
2023-03-14T04:25:53.668Z,100.00
2023-03-14T04:28:58.943Z,100.00
2023-03-14T04:31:45.349Z,100.00
2023-03-14T04:34:53.757Z,100.00
2023-03-14T04:37:43.004Z,100.00
2023-03-14T04:40:49.023Z,100.00
2023-03-14T04:43:38.627Z,100.00
2023-03-14T04:49:51.963Z,100.00
2023-03-14T04:52:39.992Z,100.00
2023-03-14T04:55:26.911Z,100.00
2023-03-14T04:58:34.253Z,100.00
2023-03-14T05:04:45.165Z,100.00
2023-03-14T05:11:50.480Z,100.00
2023-03-14T05:14:57.128Z,100.00
2023-03-14T05:18:39.401Z,100.00
2023-03-14T05:22:04.268Z,100.00
2023-03-14T05:24:54.628Z,100.00
2023-03-14T05:28:09.013Z,100.00
2023-03-14T05:31:17.838Z,100.00
2023-03-14T05:34:20.084Z,100.00
2023-03-14T05:37:26.687Z,100.00
2023-03-14T05:40:32.171Z,100.00
2023-03-14T05:43:54.503Z,100.00
2023-03-14T05:46:50.177Z,100.00
2023-03-14T05:50:09.647Z,100.00
2023-03-14T05:53:11.238Z,100.00
2023-03-14T05:56:29.674Z,100.00
2023-03-14T05:59:27.964Z,100.00
2023-03-14T06:02:33.273Z,100.00
2023-03-14T06:05:27.662Z,100.00
2023-03-14T06:08:19.426Z,100.00
2023-03-14T06:11:10.943Z,100.00
2023-03-14T06:13:57.483Z,100.00
2023-03-14T06:16:50.453Z,100.00
2023-03-14T06:19:39.090Z,100.00
2023-03-14T06:22:25.995Z,100.00
2023-03-14T06:25:17.049Z,100.00
2023-03-14T06:28:07.177Z,100.00
2023-03-14T06:30:54.961Z,100.00
2023-03-14T06:33:41.997Z,100.00
2023-03-14T06:36:31.934Z,100.00
2023-03-14T06:39:19.891Z,100.00
2023-03-14T06:42:11.599Z,100.00
2023-03-14T06:45:01.116Z,100.00
2023-03-14T06:47:48.781Z,100.00
2023-03-14T06:50:39.167Z,100.00
2023-03-14T06:53:29.059Z,100.00
2023-03-14T06:56:20.501Z,100.00
2023-03-14T06:59:09.273Z,100.00
2023-03-14T07:01:56.582Z,100.00
2023-03-14T07:04:43.207Z,100.00
2023-03-14T07:07:33.904Z,100.00
2023-03-14T07:10:20.655Z,100.00
2023-03-14T07:13:07.774Z,100.00
2023-03-14T07:15:59.124Z,100.00
2023-03-14T07:18:47.380Z,100.00
2023-03-14T07:21:36.063Z,100.00
2023-03-14T07:24:27.469Z,100.00
2023-03-14T07:27:13.889Z,100.00
2023-03-14T07:30:00.499Z,100.00
2023-03-14T07:32:47.128Z,100.00
2023-03-14T07:35:35.259Z,100.00
2023-03-14T07:38:22.962Z,100.00
2023-03-14T07:41:30.257Z,100.00
2023-03-14T07:44:36.010Z,100.00
2023-03-14T07:47:23.215Z,100.00
2023-03-14T07:50:10.689Z,100.00
2023-03-14T07:52:57.719Z,100.00
2023-03-14T07:55:44.459Z,100.00
2023-03-14T07:58:31.299Z,100.00
2023-03-14T08:01:18.051Z,100.00
2023-03-14T08:04:05.673Z,100.00
2023-03-14T08:06:52.207Z,100.00
2023-03-14T08:09:38.935Z,100.00
2023-03-14T08:12:25.915Z,100.00
2023-03-14T08:15:12.628Z,100.00
2023-03-14T08:17:59.458Z,100.00
2023-03-14T08:20:46.597Z,100.00
2023-03-14T08:23:33.420Z,100.00
2023-03-14T08:26:20.188Z,100.00
2023-03-14T08:29:08.066Z,100.00
2023-03-14T08:31:56.099Z,100.00
2023-03-14T08:34:45.692Z,100.00
2023-03-14T08:37:33.794Z,100.00
2023-03-14T08:40:20.625Z,100.00
2023-03-14T08:43:07.190Z,100.00
2023-03-14T08:45:54.183Z,100.00
2023-03-14T08:48:41.010Z,100.00
2023-03-14T08:51:30.641Z,100.00
2023-03-14T08:54:17.464Z,100.00
2023-03-14T08:57:04.233Z,100.00
2023-03-14T08:59:51.329Z,100.00
2023-03-14T09:02:37.498Z,100.00
2023-03-14T09:05:24.244Z,100.00
2023-03-14T09:08:11.266Z,100.00
2023-03-14T09:10:58.708Z,100.00
2023-03-14T09:13:44.969Z,100.00
2023-03-14T09:16:32.152Z,100.00
2023-03-14T09:19:19.801Z,100.00
2023-03-14T09:22:06.973Z,100.00
2023-03-14T09:24:53.810Z,100.00
2023-03-14T09:27:40.370Z,100.00
2023-03-14T09:30:29.380Z,100.00
2023-03-14T09:33:17.675Z,100.00
2023-03-14T09:36:05.116Z,100.00
2023-03-14T09:38:53.407Z,100.00
2023-03-14T09:41:42.844Z,100.00
2023-03-14T09:44:32.156Z,100.00
2023-03-14T09:47:21.101Z,100.00
2023-03-14T09:50:15.670Z,100.00
2023-03-14T09:53:06.367Z,100.00
2023-03-14T09:55:54.556Z,100.00
2023-03-14T09:58:42.911Z,100.00
2023-03-14T10:01:32.857Z,100.00
2023-03-14T10:04:24.468Z,100.00
2023-03-14T10:07:20.671Z,100.00
2023-03-14T10:10:12.400Z,100.00
2023-03-14T10:13:06.557Z,100.00
2023-03-14T10:15:55.731Z,100.00
2023-03-14T10:18:46.707Z,100.00
2023-03-14T10:21:38.630Z,100.00
2023-03-14T10:24:26.080Z,100.00
2023-03-14T10:27:21.401Z,100.00
2023-03-14T10:30:29.037Z,100.00
2023-03-14T10:33:26.681Z,100.00
2023-03-14T10:36:26.959Z,100.00
2023-03-14T10:39:27.250Z,100.00
2023-03-14T10:42:16.783Z,100.00
2023-03-14T10:45:11.616Z,100.00
2023-03-14T10:48:01.722Z,100.00
2023-03-14T10:50:59.683Z,100.00
2023-03-14T10:53:51.854Z,100.00
2023-03-14T10:56:41.114Z,100.00
2023-03-14T10:59:38.377Z,100.00
2023-03-14T11:02:56.090Z,100.00
2023-03-14T11:06:09.231Z,100.00
2023-03-14T11:09:25.749Z,100.00
2023-03-14T11:12:26.611Z,100.00
2023-03-14T11:15:30.632Z,100.00
2023-03-14T11:18:48.977Z,100.00
2023-03-14T11:21:56.804Z,100.00
2023-03-14T11:24:52.436Z,100.00
2023-03-14T11:27:49.789Z,100.00
2023-03-14T11:30:39.425Z,100.00
2023-03-14T11:33:29.573Z,100.00
2023-03-14T11:36:21.634Z,99.92
2023-03-14T11:39:18.839Z,99.67
2023-03-14T11:42:06.087Z,100.00
2023-03-14T11:44:54.078Z,100.00
2023-03-14T11:47:41.837Z,100.00
2023-03-14T11:50:29.698Z,100.00
2023-03-14T11:53:21.339Z,99.90
2023-03-14T11:56:28.675Z,100.00
2023-03-14T11:59:23.436Z,100.00
2023-03-14T12:02:27.223Z,100.00
2023-03-14T12:05:39.965Z,100.00
2023-03-14T12:08:41.488Z,99.82
2023-03-14T12:11:57.712Z,99.94
2023-03-14T12:14:50.669Z,99.41
2023-03-14T12:17:43.749Z,99.92
2023-03-14T12:20:30.127Z,99.92
2023-03-14T12:23:18.287Z,100.00
2023-03-14T12:26:09.760Z,99.58
2023-03-14T12:29:00.443Z,99.65
2023-03-14T12:31:48.556Z,99.59
2023-03-14T12:34:43.071Z,99.79
2023-03-14T12:37:43.530Z,99.87
2023-03-14T12:40:34.830Z,99.49
2023-03-14T12:43:27.065Z,100.00
2023-03-14T12:46:22.369Z,99.47
2023-03-14T12:49:12.291Z,99.40
2023-03-14T12:52:02.933Z,99.03
2023-03-14T12:55:11.844Z,98.53
2023-03-14T12:58:18.822Z,98.64
2023-03-14T13:01:07.124Z,98.67
2023-03-14T13:03:57.003Z,98.43
2023-03-14T13:06:49.418Z,98.35
2023-03-14T13:09:37.293Z,98.58
2023-03-14T13:12:42.328Z,98.65
2023-03-14T13:15:43.885Z,98.55
2023-03-14T13:18:35.727Z,98.81
2023-03-14T13:21:24.898Z,99.13
2023-03-14T13:24:26.563Z,98.86
2023-03-14T13:27:25.097Z,99.28
2023-03-14T13:30:26.974Z,99.33
2023-03-14T13:33:21.912Z,98.60
2023-03-14T13:36:14.208Z,98.88
2023-03-14T13:39:03.919Z,99.06
2023-03-14T13:41:50.569Z,98.67
2023-03-14T13:44:40.123Z,99.05
2023-03-14T13:47:44.903Z,99.17
2023-03-14T13:50:38.237Z,99.27
2023-03-14T13:53:25.456Z,99.36
2023-03-14T13:56:16.787Z,99.32
2023-03-14T13:59:03.594Z,98.97
2023-03-14T14:01:54.433Z,99.25
2023-03-14T14:04:42.074Z,99.14
2023-03-14T14:07:35.980Z,99.27
2023-03-14T14:10:27.702Z,98.60
2023-03-14T14:13:21.437Z,98.40
2023-03-14T14:16:10.306Z,98.24
2023-03-14T14:18:57.582Z,97.57
2023-03-14T14:21:44.346Z,97.62
2023-03-14T14:24:34.564Z,96.79
2023-03-14T14:27:32.714Z,96.65
2023-03-14T14:30:19.569Z,96.53
2023-03-14T14:38:39.528Z,95.98
2023-03-14T14:41:46.214Z,95.64
2023-03-14T14:44:47.578Z,96.33
2023-03-14T14:47:54.984Z,96.49
2023-03-14T14:51:07.003Z,96.83
2023-03-14T14:54:45.292Z,96.88
2023-03-14T14:57:42.959Z,96.92
2023-03-14T15:00:32.877Z,96.72
2023-03-14T15:03:30.350Z,96.38
2023-03-14T15:06:19.996Z,96.06
2023-03-14T15:09:48.511Z,96.31
2023-03-14T15:12:58.348Z,96.33
2023-03-14T15:16:02.075Z,95.61
2023-03-14T15:19:08.685Z,94.89
2023-03-14T15:22:16.829Z,95.15
2023-03-14T15:25:37.054Z,95.38
2023-03-14T15:28:34.778Z,94.96
2023-03-14T15:31:42.046Z,94.57
2023-03-14T15:34:39.359Z,95.80
2023-03-14T15:41:16.540Z,96.92
2023-03-14T15:47:16.120Z,98.59
2023-03-14T15:51:27.205Z,98.65
2023-03-14T15:55:15.909Z,99.38
2023-03-14T15:58:31.555Z,99.34
2023-03-14T16:01:53.376Z,99.93
2023-03-14T16:04:49.751Z,99.40
2023-03-14T16:08:09.355Z,99.87
2023-03-14T16:11:01.521Z,100.00
2023-03-14T16:13:53.440Z,100.00
2023-03-14T16:16:41.765Z,100.00
2023-03-14T16:19:32.645Z,100.00
2023-03-14T16:22:24.166Z,100.00
2023-03-14T16:25:23.373Z,100.00
2023-03-14T16:28:12.984Z,100.00
2023-03-14T16:31:12.576Z,100.00
2023-03-14T16:34:06.985Z,100.00
2023-03-14T16:36:54.537Z,100.00
2023-03-14T16:40:12.088Z,100.00
2023-03-14T16:43:15.598Z,100.00
2023-03-14T16:46:03.340Z,100.00
2023-03-14T16:48:49.846Z,100.00
2023-03-14T16:51:36.976Z,100.00
2023-03-14T16:54:23.824Z,100.00
2023-03-14T16:57:10.585Z,100.00
2023-03-14T16:59:57.069Z,100.00
2023-03-14T17:02:46.443Z,100.00
2023-03-14T17:05:33.813Z,100.00
2023-03-14T17:08:26.571Z,100.00
2023-03-14T17:11:12.993Z,100.00
2023-03-14T17:14:01.107Z,100.00
2023-03-14T17:16:47.850Z,100.00
2023-03-14T17:19:35.088Z,100.00
2023-03-14T17:22:25.235Z,100.00
2023-03-14T17:25:14.350Z,100.00
2023-03-14T17:28:01.098Z,100.00
2023-03-14T17:30:48.998Z,100.00
2023-03-14T17:33:36.324Z,100.00
2023-03-14T17:36:30.558Z,100.00
2023-03-14T17:39:16.786Z,100.00
2023-03-14T17:42:03.702Z,100.00
2023-03-14T17:44:50.921Z,100.00
2023-03-14T17:47:37.939Z,100.00
2023-03-14T17:50:24.583Z,100.00
2023-03-14T17:53:11.813Z,100.00
2023-03-14T17:55:58.964Z,100.00
2023-03-14T17:58:46.803Z,100.00
2023-03-14T18:01:36.292Z,100.00
2023-03-14T18:04:23.425Z,100.00
2023-03-14T18:07:10.458Z,100.00
2023-03-14T18:09:57.222Z,100.00
2023-03-14T18:12:44.086Z,100.00
2023-03-14T18:15:34.007Z,100.00
2023-03-14T18:18:21.160Z,100.00
2023-03-14T18:21:11.587Z,100.00
2023-03-14T18:23:58.585Z,100.00
2023-03-14T18:26:46.075Z,100.00
2023-03-14T18:29:32.556Z,100.00
2023-03-14T18:32:19.427Z,100.00
2023-03-14T18:35:09.133Z,100.00
2023-03-14T18:37:58.967Z,100.00
2023-03-14T18:40:45.449Z,100.00
2023-03-14T18:43:34.546Z,100.00
2023-03-14T18:46:22.259Z,100.00
2023-03-14T18:49:14.305Z,100.00
2023-03-14T18:52:02.908Z,100.00
2023-03-14T18:54:53.182Z,100.00
2023-03-14T18:57:39.866Z,100.00
2023-03-14T19:00:28.384Z,100.00
2023-03-14T19:03:14.947Z,100.00
2023-03-14T19:06:05.115Z,100.00
2023-03-14T19:08:54.647Z,100.00
2023-03-14T19:11:44.868Z,100.00
2023-03-14T19:14:31.043Z,100.00
2023-03-14T19:17:17.839Z,100.00
2023-03-14T19:20:04.961Z,100.00
2023-03-14T19:22:52.024Z,100.00
2023-03-14T19:25:38.558Z,100.00
2023-03-14T19:28:26.356Z,100.00
2023-03-14T19:31:14.641Z,100.00
2023-03-14T19:34:02.019Z,100.00
2023-03-14T19:36:48.924Z,100.00
2023-03-14T19:39:35.476Z,100.00
2023-03-14T19:42:23.097Z,100.00
2023-03-14T19:45:10.616Z,100.00
2023-03-14T19:47:57.426Z,100.00
2023-03-14T19:50:44.670Z,100.00
2023-03-14T19:53:31.667Z,100.00
2023-03-14T19:56:24.428Z,100.00
2023-03-14T19:59:11.103Z,100.00
2023-03-14T20:02:00.383Z,100.00
2023-03-14T20:04:47.408Z,100.00
2023-03-14T20:07:34.477Z,100.00
2023-03-14T20:10:24.498Z,100.00
2023-03-14T20:13:20.787Z,100.00
2023-03-14T20:16:10.798Z,100.00
2023-03-14T20:19:06.743Z,100.00
2023-03-14T20:21:53.673Z,100.00
2023-03-14T20:24:40.768Z,100.00
2023-03-14T20:27:27.196Z,100.00
2023-03-14T20:30:15.423Z,100.00
2023-03-14T20:33:05.207Z,100.00
2023-03-14T20:35:59.933Z,100.00
2023-03-14T20:38:47.077Z,100.00
2023-03-14T20:41:34.166Z,100.00
2023-03-14T20:44:21.386Z,100.00
2023-03-14T20:47:08.146Z,100.00
2023-03-14T20:49:56.661Z,100.00
2023-03-14T20:52:43.930Z,100.00
2023-03-14T20:55:30.882Z,100.00
2023-03-14T20:58:20.584Z,100.00
2023-03-14T21:04:15.273Z,100.00
2023-03-14T21:07:01.751Z,100.00
2023-03-14T21:09:48.697Z,100.00
2023-03-14T21:12:35.369Z,100.00
2023-03-14T21:15:22.173Z,100.00
2023-03-14T21:18:08.344Z,100.00
2023-03-14T21:20:57.123Z,100.00
2023-03-14T21:23:43.385Z,100.00
2023-03-14T21:26:31.753Z,100.00
2023-03-14T21:32:13.150Z,100.00
2023-03-14T21:34:59.377Z,100.00
2023-03-14T21:37:48.146Z,100.00
2023-03-14T21:40:34.568Z,100.00
2023-03-14T21:43:21.874Z,100.00
2023-03-14T21:46:17.473Z,100.00
2023-03-14T21:49:04.604Z,100.00
2023-03-14T21:51:52.486Z,100.00
2023-03-14T21:54:39.287Z,100.00
2023-03-14T21:57:30.052Z,100.00
2023-03-14T22:00:20.547Z,100.00
2023-03-14T22:03:13.183Z,100.00
2023-03-14T22:06:03.867Z,100.00
2023-03-14T22:08:51.399Z,100.00
2023-03-14T22:11:38.573Z,100.00
2023-03-14T22:14:25.449Z,100.00
2023-03-14T22:17:12.422Z,100.00
2023-03-14T22:19:59.107Z,100.00
2023-03-14T22:22:45.919Z,100.00
2023-03-14T22:25:32.294Z,100.00
2023-03-14T22:28:19.803Z,100.00
2023-03-14T22:31:06.073Z,100.00
2023-03-14T22:33:53.363Z,100.00
2023-03-14T22:36:39.847Z,100.00
2023-03-14T22:39:27.330Z,100.00
2023-03-14T22:42:15.021Z,100.00
2023-03-14T22:45:02.179Z,100.00
2023-03-14T22:47:48.660Z,100.00
2023-03-14T22:50:37.920Z,100.00
2023-03-14T22:53:25.134Z,100.00
2023-03-14T22:56:13.009Z,100.00
2023-03-14T22:59:00.159Z,100.00
2023-03-14T23:01:47.292Z,100.00
2023-03-14T23:04:33.924Z,100.00
2023-03-14T23:07:21.008Z,100.00
2023-03-14T23:10:08.882Z,100.00
2023-03-14T23:13:00.047Z,100.00
2023-03-14T23:15:46.656Z,100.00
2023-03-14T23:18:33.669Z,100.00
2023-03-14T23:21:23.381Z,100.00
2023-03-14T23:24:10.447Z,100.00
2023-03-14T23:26:57.777Z,100.00
2023-03-14T23:29:46.744Z,100.00
2023-03-14T23:32:33.154Z,100.00
2023-03-14T23:35:20.697Z,100.00
2023-03-14T23:38:07.156Z,100.00
2023-03-14T23:40:54.061Z,100.00
2023-03-14T23:43:45.173Z,100.00
2023-03-14T23:46:35.686Z,100.00
2023-03-14T23:49:22.444Z,100.00
2023-03-14T23:52:09.175Z,100.00
2023-03-14T23:54:55.772Z,100.00
2023-03-14T23:57:42.810Z,100.00
